Time;durP1;ratioP1;P1;durP2;ratioP2;P2;SDS_P1;SDS_P2;PMS_P1;PMS_P2;Temp;Humidity;BMP_temperature;BMP_pressure;BME280_temperature;BME280_humidity;BME280_pressure;Samples;Min_cycle;Max_cycle;Signal;HPM_P1;HPM_P2
2023/08/14 00:02:03;;;;;;;6.72;6.13;;;;;;;16.13;100.00;95283.44;4949182;29;20054;-90
2023/08/14 00:04:28;;;;;;;6.68;5.65;;;;;;;15.94;100.00;95312.91;4947379;29;20039;-94
2023/08/14 00:06:54;;;;;;;5.70;5.20;;;;;;;15.93;100.00;95289.56;4946494;29;20023;-90
2023/08/14 00:09:20;;;;;;;7.00;6.40;;;;;;;15.94;100.00;95291.19;4948051;29;20039;-88
2023/08/14 00:11:45;;;;;;;8.60;5.38;;;;;;;15.65;100.00;95305.31;4928826;29;20126;-82
2023/08/14 00:14:10;;;;;;;5.47;4.97;;;;;;;15.76;100.00;95302.97;4914954;29;20041;-91
2023/08/14 00:16:36;;;;;;;7.57;5.20;;;;;;;15.72;100.00;95296.53;4929467;29;20027;-86
2023/08/14 00:19:01;;;;;;;5.72;5.32;;;;;;;15.46;100.00;95309.41;4948099;29;20523;-91
2023/08/14 00:21:28;;;;;;;5.85;5.32;;;;;;;15.61;100.00;95298.88;4931280;29;20027;-91
2023/08/14 00:23:53;;;;;;;7.47;5.30;;;;;;;15.39;100.00;95305.13;4947874;29;20035;-90
2023/08/14 00:26:19;;;;;;;5.93;5.53;;;;;;;15.38;100.00;95301.72;4947943;29;20024;-92
2023/08/14 00:28:44;;;;;;;5.22;4.85;;;;;;;15.51;100.00;95293.22;4930724;29;20401;-90
2023/08/14 00:31:09;;;;;;;6.10;5.68;;;;;;;15.21;100.00;95303.84;4932922;29;20103;-87
2023/08/14 00:33:35;;;;;;;6.38;5.78;;;;;;;15.18;100.00;95327.69;4950132;29;20034;-87
2023/08/14 00:36:00;;;;;;;5.90;5.30;;;;;;;15.14;100.00;95317.81;4932086;29;20485;-89
2023/08/14 00:38:26;;;;;;;5.68;5.15;;;;;;;15.13;100.00;95330.06;4929389;29;20031;-88
2023/08/14 00:40:52;;;;;;;9.60;5.40;;;;;;;15.13;100.00;95340.50;4949088;29;20031;-90
2023/08/14 00:43:20;;;;;;;5.97;5.43;;;;;;;15.16;100.00;95327.06;4928049;29;20034;-90
2023/08/14 00:45:47;;;;;;;6.05;5.53;;;;;;;15.00;100.00;95337.78;4946436;29;20035;-91
2023/08/14 00:48:14;;;;;;;6.18;5.35;;;;;;;14.75;100.00;95379.09;4946948;29;20035;-88
2023/08/14 00:50:39;;;;;;;6.78;5.78;;;;;;;14.94;100.00;95382.06;4927199;29;20023;-87
2023/08/14 00:53:04;;;;;;;6.45;5.82;;;;;;;14.87;100.00;95363.75;4947185;29;20543;-88
2023/08/14 00:55:30;;;;;;;5.75;5.25;;;;;;;14.99;100.00;95354.44;4928270;29;20092;-91
2023/08/14 00:57:56;;;;;;;5.70;5.28;;;;;;;14.92;100.00;95353.56;4929291;29;20030;-88
2023/08/14 01:00:23;;;;;;;5.75;5.25;;;;;;;15.05;100.00;95338.03;4945826;29;20151;-91
2023/08/14 01:02:49;;;;;;;5.10;4.70;;;;;;;14.84;100.00;95335.41;4928452;29;20643;-91
2023/08/14 01:05:14;;;;;;;5.80;5.22;;;;;;;14.81;100.00;95332.38;4929003;29;20042;-88
2023/08/14 01:07:40;;;;;;;7.35;5.10;;;;;;;14.78;100.00;95323.94;4944931;29;20035;-87
2023/08/14 01:10:09;;;;;;;5.53;5.03;;;;;;;14.73;100.00;95325.50;4929142;29;20049;-87
2023/08/14 01:13:06;;;;;;;4.88;4.47;;;;;;;14.70;100.00;95323.28;4941915;29;20038;-89
2023/08/14 01:15:42;;;;;;;5.38;4.97;;;;;;;14.66;100.00;95312.41;4902987;29;20097;-90
2023/08/14 01:18:09;;;;;;;6.70;5.03;;;;;;;14.73;100.00;95315.06;4928994;29;20027;-90
2023/08/14 01:20:36;;;;;;;5.05;4.72;;;;;;;14.69;100.00;95306.81;4929606;29;20089;-90
2023/08/14 01:23:36;;;;;;;5.53;5.10;;;;;;;14.66;100.00;95314.22;4928757;29;20200;-90
2023/08/14 01:26:01;;;;;;;5.30;4.95;;;;;;;14.71;100.00;95322.25;4929514;29;20114;-92
2023/08/14 01:28:27;;;;;;;5.35;5.00;;;;;;;14.63;100.00;95325.00;4930978;29;20473;-93
2023/08/14 01:30:54;;;;;;;6.28;5.13;;;;;;;14.52;100.00;95335.91;4930136;29;20031;-91
2023/08/14 01:33:19;;;;;;;5.70;5.30;;;;;;;14.32;100.00;95353.91;4929507;29;20058;-89
2023/08/14 01:36:27;;;;;;;6.20;5.70;;;;;;;14.17;100.00;95408.66;4928581;29;20115;-87
2023/08/14 01:39:23;;;;;;;5.95;5.45;;;;;;;14.21;100.00;95409.94;4889877;29;20465;-88
2023/08/14 01:42:01;;;;;;;5.43;5.03;;;;;;;14.27;100.00;95390.97;4907449;29;20035;-87
2023/08/14 01:44:28;;;;;;;7.28;5.50;;;;;;;14.31;100.00;95370.56;4927216;29;20511;-86
2023/08/14 01:46:56;;;;;;;5.57;5.28;;;;;;;14.17;100.00;95366.97;4926041;29;20047;-86
2023/08/14 01:49:24;;;;;;;5.87;5.20;;;;;;;14.11;100.00;95385.94;4928132;29;20042;-88
2023/08/14 01:51:52;;;;;;;6.25;5.65;;;;;;;14.07;100.00;95400.31;4926512;29;20035;-86
2023/08/14 01:54:18;;;;;;;5.68;5.22;;;;;;;14.10;100.00;95404.34;4927508;29;20042;-85
2023/08/14 01:56:43;;;;;;;5.88;5.40;;;;;;;14.08;100.00;95414.97;4926248;29;20027;-86
2023/08/14 01:59:08;;;;;;;5.80;5.40;;;;;;;13.91;100.00;95417.91;4946393;29;20034;-89
2023/08/14 02:01:34;;;;;;;6.18;5.57;;;;;;;13.94;100.00;95414.94;4931405;29;20054;-89
2023/08/14 02:03:59;;;;;;;5.32;4.93;;;;;;;13.92;100.00;95420.34;4929305;29;20122;-91
2023/08/14 02:06:25;;;;;;;6.00;5.55;;;;;;;13.95;100.00;95408.75;4949951;29;20094;-89
2023/08/14 02:08:50;;;;;;;5.68;5.25;;;;;;;13.91;100.00;95408.31;4914207;29;20038;-90
2023/08/14 02:11:15;;;;;;;5.05;4.75;;;;;;;13.99;100.00;95408.22;4946558;29;20027;-90
2023/08/14 02:13:41;;;;;;;6.20;5.75;;;;;;;14.00;100.00;95411.66;4944141;29;20035;-89
2023/08/14 02:16:06;;;;;;;6.03;5.50;;;;;;;14.10;100.00;95392.13;4944306;29;20037;-85
2023/08/14 02:18:32;;;;;;;5.80;5.40;;;;;;;14.20;100.00;95376.22;4944145;29;20433;-88
2023/08/14 02:20:58;;;;;;;5.43;5.03;;;;;;;14.05;100.00;95393.69;4926913;29;20019;-94
2023/08/14 02:23:23;;;;;;;5.90;5.47;;;;;;;13.91;100.00;95412.72;4945816;29;20027;-89
2023/08/14 02:25:48;;;;;;;6.32;5.82;;;;;;;13.76;100.00;95428.34;4944488;29;20031;-88
2023/08/14 02:28:14;;;;;;;5.60;5.10;;;;;;;13.80;100.00;95441.81;4945504;29;20039;-92
2023/08/14 02:30:42;;;;;;;6.28;5.60;;;;;;;13.69;100.00;95450.84;4944686;29;20019;-90
2023/08/14 02:33:09;;;;;;;6.20;5.75;;;;;;;13.69;100.00;95459.47;4929440;29;20124;-90
2023/08/14 02:35:34;;;;;;;6.63;6.05;;;;;;;13.66;100.00;95461.63;4928033;29;20031;-86
2023/08/14 02:38:01;;;;;;;6.30;5.80;;;;;;;13.71;100.00;95462.69;4929135;29;20386;-90
2023/08/14 02:40:27;;;;;;;6.93;6.25;;;;;;;13.64;100.00;95463.59;4927801;29;20066;-89
2023/08/14 02:42:52;;;;;;;6.30;5.60;;;;;;;13.57;100.00;95480.91;4915248;29;20540;-89
2023/08/14 02:45:18;;;;;;;5.82;5.43;;;;;;;13.56;100.00;95487.91;4931585;29;20023;-89
2023/08/14 02:47:43;;;;;;;5.90;5.40;;;;;;;13.52;100.00;95486.63;4932792;29;20440;-90
2023/08/14 02:50:09;;;;;;;6.53;5.85;;;;;;;13.75;100.00;95494.41;4939484;29;20031;-91
2023/08/14 02:52:34;;;;;;;6.80;6.10;;;;;;;13.72;100.00;95476.53;4927688;29;20031;-88
2023/08/14 02:54:59;;;;;;;6.40;5.85;;;;;;;13.69;100.00;95479.47;4927722;29;20035;-85
2023/08/14 02:57:25;;;;;;;6.38;5.95;;;;;;;13.67;100.00;95461.47;4924806;29;20062;-87
2023/08/14 02:59:50;;;;;;;6.38;5.72;;;;;;;13.54;100.00;95473.44;4944274;29;20055;-88
2023/08/14 03:02:16;;;;;;;6.25;5.75;;;;;;;13.49;100.00;95486.97;4929915;29;20511;-86
2023/08/14 03:04:41;;;;;;;6.00;5.50;;;;;;;13.45;100.00;95493.50;4950097;29;20035;-83
2023/08/14 03:07:07;;;;;;;6.50;5.90;;;;;;;13.54;100.00;95504.69;4937068;28;20039;-87
2023/08/14 03:09:32;;;;;;;5.90;5.40;;;;;;;13.51;100.00;95499.81;4946495;29;20118;-88
2023/08/14 03:11:58;;;;;;;5.68;5.15;;;;;;;13.33;100.00;95512.28;4940990;29;20027;-83
2023/08/14 03:14:23;;;;;;;6.90;6.20;;;;;;;13.20;100.00;95528.47;4962188;29;20039;-83
2023/08/14 03:16:48;;;;;;;6.90;6.28;;;;;;;13.24;100.00;95552.34;4947237;29;20035;-82
2023/08/14 03:19:14;;;;;;;6.80;5.90;;;;;;;13.19;100.00;95569.31;4953321;29;20118;-80
2023/08/14 03:21:41;;;;;;;7.15;6.60;;;;;;;13.25;100.00;95574.81;4962258;29;20011;-83
2023/08/14 03:24:06;;;;;;;6.63;6.07;;;;;;;13.27;100.00;95571.03;4959807;28;20035;-84
2023/08/14 03:26:32;;;;;;;6.65;6.07;;;;;;;13.23;100.00;95566.38;4947827;29;20027;-82
2023/08/14 03:28:57;;;;;;;6.63;6.00;;;;;;;13.26;100.00;95566.03;5049199;23;20694;-90
2023/08/14 03:33:58;;;;;;;6.28;5.68;;;;;;;13.25;100.00;95567.00;5911514;23;20015;-88
2023/08/14 03:36:23;;;;;;;7.07;6.47;;;;;;;13.29;100.00;95563.91;4926485;29;20433;-85
2023/08/14 03:38:48;;;;;;;6.50;5.88;;;;;;;13.34;100.00;95566.78;5189647;23;20046;-89
2023/08/14 03:41:14;;;;;;;6.03;5.38;;;;;;;13.36;100.00;95558.78;4919006;29;20135;-85
2023/08/14 03:43:39;;;;;;;7.55;6.00;;;;;;;13.34;100.00;95556.38;4918327;29;20115;-86
2023/08/14 03:46:05;;;;;;;6.53;6.03;;;;;;;13.37;100.00;95560.41;4934021;29;20035;-87
2023/08/14 03:48:30;;;;;;;6.65;6.15;;;;;;;13.36;100.00;95558.78;4914817;29;20043;-89
2023/08/14 03:50:56;;;;;;;8.18;6.22;;;;;;;13.37;100.00;95560.41;4911462;29;20078;-90
2023/08/14 03:53:21;;;;;;;6.88;6.28;;;;;;;13.40;100.00;95560.88;4912174;29;20039;-87
2023/08/14 03:55:46;;;;;;;6.25;5.85;;;;;;;13.46;100.00;95562.78;4909329;29;20032;-88
2023/08/14 03:58:12;;;;;;;6.40;5.95;;;;;;;13.63;100.00;95555.69;4909345;29;21014;-90
2023/08/14 04:00:37;;;;;;;7.00;6.03;;;;;;;13.74;100.00;95531.84;4910158;29;20383;-93
2023/08/14 04:03:03;;;;;;;5.72;5.32;;;;;;;13.86;100.00;95509.59;4910705;29;20028;-83
2023/08/14 04:05:28;;;;;;;5.68;5.28;;;;;;;13.71;100.00;95516.56;4907343;29;20024;-90
2023/08/14 04:07:54;;;;;;;6.03;5.40;;;;;;;13.70;100.00;95523.56;4907531;29;20111;-93
2023/08/14 04:10:19;;;;;;;6.40;5.78;;;;;;;13.73;100.00;95512.81;4915594;29;20530;-87
2023/08/14 04:12:45;;;;;;;6.65;5.95;;;;;;;13.82;100.00;95518.75;4907302;29;20034;-86
2023/08/14 04:15:17;;;;;;;7.13;5.72;;;;;;;14.06;100.00;95513.28;4908703;29;20095;-90
2023/08/14 04:17:43;;;;;;;6.18;5.70;;;;;;;14.29;100.00;95481.16;4891032;29;20310;-86
2023/08/14 04:20:09;;;;;;;6.18;5.68;;;;;;;14.32;100.00;95470.38;4907775;29;20106;-87
2023/08/14 04:22:35;;;;;;;6.43;5.82;;;;;;;14.45;100.00;95463.56;4889779;29;20118;-86
2023/08/14 04:25:00;;;;;;;6.85;5.95;;;;;;;14.54;100.00;95461.69;4887480;29;20028;-89
2023/08/14 04:27:26;;;;;;;5.68;5.18;;;;;;;14.65;100.00;95453.38;4886627;29;20084;-87
2023/08/14 04:29:51;;;;;;;6.22;5.20;;;;;;;14.88;100.00;95434.97;4887716;29;20443;-86
2023/08/14 04:32:17;;;;;;;6.18;5.68;;;;;;;15.49;100.00;95368.28;4889790;29;20033;-85
2023/08/14 04:34:42;;;;;;;5.63;5.13;;;;;;;16.07;100.00;95312.97;4887105;29;20522;-84
2023/08/14 04:37:07;;;;;;;5.15;4.65;;;;;;;16.85;100.00;95267.91;4887690;29;20050;-83
2023/08/14 04:39:33;;;;;;;5.28;4.68;;;;;;;17.18;100.00;95231.19;4886587;29;20084;-81
2023/08/14 04:41:58;;;;;;;6.22;4.00;;;;;;;18.68;100.00;95202.72;4885983;29;20040;-83
2023/08/14 04:44:25;;;;;;;4.05;3.65;;;;;;;20.20;100.00;95173.72;4886188;29;20028;-84
2023/08/14 04:46:51;;;;;;;16.02;4.22;;;;;;;21.13;100.00;95163.34;4884630;29;20361;-82
2023/08/14 04:49:16;;;;;;;5.03;3.33;;;;;;;21.77;100.00;95169.44;4886205;29;20514;-82
2023/08/14 04:51:42;;;;;;;3.97;3.00;;;;;;;22.32;100.00;95173.09;4884027;29;20036;-83
2023/08/14 04:54:07;;;;;;;3.75;2.83;;;;;;;22.55;100.00;95170.34;4884703;29;20098;-82
2023/08/14 04:56:33;;;;;;;3.30;3.00;;;;;;;23.18;95.13;95174.50;4883104;29;20075;-83
2023/08/14 04:58:58;;;;;;;4.70;2.90;;;;;;;23.89;90.03;95170.91;4884318;29;20056;-84
2023/08/14 05:01:24;;;;;;;4.20;2.55;;;;;;;24.37;87.19;95169.34;4887301;29;20021;-82
2023/08/14 05:03:49;;;;;;;3.28;3.08;;;;;;;25.21;82.52;95175.56;4888315;29;20060;-84
2023/08/14 05:06:14;;;;;;;3.20;2.80;;;;;;;25.38;80.51;95172.75;4887613;29;20121;-82
2023/08/14 05:08:40;;;;;;;3.33;2.58;;;;;;;26.02;79.42;95174.13;4887476;29;20048;-86
2023/08/14 05:11:06;;;;;;;5.07;2.63;;;;;;;25.50;85.80;95174.16;4887272;29;20040;-84
2023/08/14 05:13:31;;;;;;;3.67;2.72;;;;;;;25.35;86.78;95183.88;4885659;29;20020;-83
2023/08/14 05:15:56;;;;;;;3.63;2.80;;;;;;;26.20;80.89;95176.31;4887484;29;20083;-83
2023/08/14 05:18:22;;;;;;;3.83;2.90;;;;;;;26.71;77.47;95179.06;4886668;29;20459;-83
2023/08/14 05:20:48;;;;;;;3.75;3.45;;;;;;;27.40;75.00;95184.59;4869844;29;20048;-82
2023/08/14 05:23:15;;;;;;;4.60;3.03;;;;;;;27.74;70.59;95180.25;4885568;29;20099;-82
2023/08/14 05:25:46;;;;;;;3.80;3.43;;;;;;;28.99;66.95;95176.34;4885318;29;20471;-82
2023/08/14 05:28:13;;;;;;;5.30;2.67;;;;;;;29.18;64.05;95185.25;4884224;29;20052;-82
2023/08/14 05:30:44;;;;;;;21.42;4.85;;;;;;;29.87;60.94;95167.97;4886043;29;20568;-82
2023/08/14 05:33:09;;;;;;;5.00;3.17;;;;;;;30.24;59.62;95178.75;4869204;29;20044;-82
2023/08/14 05:35:35;;;;;;;3.80;2.83;;;;;;;30.67;57.21;95179.47;4886420;29;20487;-82
2023/08/14 05:38:00;;;;;;;23.33;4.83;;;;;;;31.49;53.10;95179.72;4885033;29;20036;-81
2023/08/14 05:40:26;;;;;;;5.37;3.43;;;;;;;32.36;50.17;95178.53;4884701;29;20084;-82
2023/08/14 05:43:09;;;;;;;4.43;3.28;;;;;;;32.13;49.88;95181.47;4886209;29;20029;-82
2023/08/14 05:45:39;;;;;;;2.97;2.47;;;;;;;32.94;47.23;95183.13;4884710;29;20068;-81
2023/08/14 05:48:06;;;;;;;3.45;3.13;;;;;;;33.75;44.09;95184.56;4885799;29;20115;-80
2023/08/14 05:50:33;;;;;;;2.97;2.78;;;;;;;33.82;43.30;95186.78;4885255;29;20087;-82
2023/08/14 05:53:00;;;;;;;3.60;2.40;;;;;;;33.27;45.00;95191.72;4884219;29;20139;-82
2023/08/14 05:55:26;;;;;;;2.30;2.00;;;;;;;34.01;43.17;95192.69;4878266;29;20073;-83
2023/08/14 05:57:52;;;;;;;3.65;2.20;;;;;;;34.04;42.52;95186.69;4879800;29;20028;-81
2023/08/14 06:00:18;;;;;;;2.33;2.13;;;;;;;34.21;42.52;95192.16;4881932;29;20507;-84
2023/08/14 06:02:44;;;;;;;2.75;2.55;;;;;;;34.42;44.86;95195.81;4880677;29;20028;-83
2023/08/14 06:05:10;;;;;;;3.63;2.33;;;;;;;33.69;45.97;95195.75;4883785;29;20800;-84
2023/08/14 06:07:35;;;;;;;2.45;2.30;;;;;;;35.50;42.99;95188.66;4885109;29;20104;-83
2023/08/14 06:10:05;;;;;;;2.53;2.30;;;;;;;34.77;43.09;95188.59;4883703;29;20036;-83
2023/08/14 06:12:31;;;;;;;2.05;1.90;;;;;;;34.18;43.31;95189.28;4885038;29;20084;-83
2023/08/14 06:14:56;;;;;;;;;;;;;;;34.94;43.02;95187.78;4884515;29;20033;-82
2023/08/14 06:17:22;;;;;;;2.60;2.40;;;;;;;34.77;43.37;95190.50;4884573;29;19930;-82
2023/08/14 06:19:47;;;;;;;2.40;2.20;;;;;;;35.61;41.19;95189.94;4886067;29;20107;-81
2023/08/14 06:22:13;;;;;;;4.70;2.33;;;;;;;34.97;41.46;95184.44;4885226;29;20024;-83
2023/08/14 06:24:38;;;;;;;2.83;2.53;;;;;;;36.07;39.26;95181.00;4886316;29;20024;-83
2023/08/14 06:27:05;;;;;;;3.38;3.17;;;;;;;34.98;41.73;95177.94;4884761;29;20032;-83
2023/08/14 06:29:30;;;;;;;3.35;3.05;;;;;;;35.18;39.37;95179.22;4884808;29;20131;-83
2023/08/14 06:31:57;;;;;;;3.10;2.85;;;;;;;32.35;47.34;95176.16;4862455;29;20760;-83
2023/08/14 06:34:23;;;;;;;3.58;3.28;;;;;;;31.30;50.89;95182.47;4882270;29;20049;-82
2023/08/14 06:36:48;;;;;;;4.28;2.90;;;;;;;30.53;52.77;95187.44;4884842;29;20032;-83
2023/08/14 06:39:14;;;;;;;3.70;2.90;;;;;;;31.01;55.78;95184.59;4877323;29;20040;-85
2023/08/14 06:41:40;;;;;;;2.97;2.78;;;;;;;31.19;50.99;95184.53;4874459;29;20039;-84
2023/08/14 06:44:07;;;;;;;3.20;2.95;;;;;;;31.22;48.96;95186.63;4880661;29;20861;-85
2023/08/14 06:46:33;;;;;;;3.23;2.93;;;;;;;32.08;47.82;95189.59;4884917;29;20044;-84
2023/08/14 06:48:58;;;;;;;3.03;2.70;;;;;;;31.39;51.67;95187.94;4882315;29;21056;-82
2023/08/14 06:51:23;;;;;;;2.75;2.55;;;;;;;31.03;52.33;95185.09;4884454;29;20136;-83
2023/08/14 06:53:49;;;;;;;3.10;2.90;;;;;;;30.72;51.30;95185.56;4883199;29;20035;-80
2023/08/14 06:56:14;;;;;;;5.97;2.70;;;;;;;30.31;51.24;95196.00;4883890;29;20032;-84
2023/08/14 06:58:40;;;;;;;4.13;2.38;;;;;;;30.39;50.68;95186.53;4885677;29;20039;-84
2023/08/14 07:01:06;;;;;;;2.47;2.28;;;;;;;30.75;50.92;95192.19;4884809;29;20475;-87
2023/08/14 07:03:32;;;;;;;;;;;;;;;34.11;42.40;95197.03;4886147;29;20040;-86
2023/08/14 07:05:57;;;;;;;2.80;1.90;;;;;;;34.96;36.84;95195.56;4884918;29;19915;-83
2023/08/14 07:08:22;;;;;;;3.57;2.13;;;;;;;35.48;37.29;95205.16;4885887;29;20511;-83
2023/08/14 07:10:48;;;;;;;2.73;2.27;;;;;;;34.38;37.99;95202.16;4884090;29;20037;-83
2023/08/14 07:13:13;;;;;;;2.28;2.08;;;;;;;35.60;35.51;95201.81;4884073;29;20056;-83
2023/08/14 07:15:39;;;;;;;3.22;2.47;;;;;;;36.35;35.09;95195.59;4884774;29;20127;-85
2023/08/14 07:18:04;;;;;;;2.75;2.55;;;;;;;35.60;35.63;95202.63;4882820;29;20060;-82
2023/08/14 07:20:30;;;;;;;3.10;2.90;;;;;;;34.50;37.55;95204.22;4883377;29;20024;-82
2023/08/14 07:22:55;;;;;;;2.70;2.50;;;;;;;31.10;45.01;95191.66;4883554;29;20016;-83
2023/08/14 07:25:21;;;;;;;3.88;2.63;;;;;;;30.87;44.46;95197.09;4883627;29;20071;-83
2023/08/14 07:27:46;;;;;;;3.10;2.40;;;;;;;30.96;46.27;95192.69;4881832;29;20032;-83
2023/08/14 07:30:12;;;;;;;2.80;2.60;;;;;;;30.54;48.21;95202.41;4877320;29;20208;-83
2023/08/14 07:32:37;;;;;;;2.92;2.72;;;;;;;31.30;46.97;95195.88;4881057;29;20514;-82
2023/08/14 07:35:03;;;;;;;2.90;2.60;;;;;;;30.98;46.11;95194.00;4883405;29;20406;-81
2023/08/14 07:37:28;;;;;;;4.28;3.03;;;;;;;30.76;48.36;95188.44;4883790;29;20035;-83
2023/08/14 07:39:54;;;;;;;3.65;2.95;;;;;;;29.78;47.99;95187.31;4881743;29;20478;-83
2023/08/14 07:42:19;;;;;;;2.53;2.40;;;;;;;28.69;50.39;95188.84;4882955;29;20455;-82
2023/08/14 07:44:45;;;;;;;4.28;3.08;;;;;;;29.28;47.96;95193.19;4866605;29;20024;-81
2023/08/14 07:47:11;;;;;;;5.82;2.85;;;;;;;29.92;47.53;95192.78;4884299;29;20029;-81
2023/08/14 07:49:36;;;;;;;3.20;2.97;;;;;;;30.35;50.80;95185.53;4882324;29;20071;-81
2023/08/14 07:52:01;;;;;;;3.15;2.85;;;;;;;29.98;50.02;95185.50;4884910;29;20663;-83
2023/08/14 07:54:27;;;;;;;2.97;2.70;;;;;;;30.34;49.62;95192.75;4882459;29;20420;-80
2023/08/14 07:56:53;;;;;;;2.90;2.70;;;;;;;30.30;50.53;95177.59;4884315;29;20513;-82
2023/08/14 07:59:19;;;;;;;3.22;3.03;;;;;;;29.36;51.17;95195.22;4883423;29;20087;-82
2023/08/14 08:01:44;;;;;;;4.13;2.90;;;;;;;29.42;50.00;95185.28;4886150;29;20031;-84
2023/08/14 08:04:10;;;;;;;3.10;2.90;;;;;;;29.26;49.39;95184.66;4886353;29;20326;-83
2023/08/14 08:06:35;;;;;;;3.05;2.80;;;;;;;28.32;52.55;95190.41;4885075;29;20028;-82
2023/08/14 08:09:01;;;;;;;4.78;2.83;;;;;;;29.61;50.69;95178.94;4888108;29;20028;-83
2023/08/14 08:11:26;;;;;;;3.67;3.03;;;;;;;29.76;49.55;95186.78;4887072;29;20047;-83
2023/08/14 08:13:51;;;;;;;3.15;2.63;;;;;;;29.50;53.00;95185.50;4887926;29;20020;-82
2023/08/14 08:16:17;;;;;;;3.63;2.45;;;;;;;28.92;51.55;95179.34;4886801;29;20408;-83
2023/08/14 08:18:42;;;;;;;3.10;2.80;;;;;;;29.95;48.74;95181.53;4886684;29;20566;-86
2023/08/14 08:21:08;;;;;;;3.42;2.85;;;;;;;29.96;45.88;95180.41;4888706;29;20052;-82
2023/08/14 08:23:33;;;;;;;3.00;2.80;;;;;;;30.16;46.75;95171.34;4887815;29;20075;-87
2023/08/14 08:25:59;;;;;;;2.78;2.58;;;;;;;29.13;46.77;95172.72;4889021;29;20075;-85
2023/08/14 08:28:24;;;;;;;2.53;2.33;;;;;;;29.29;46.93;95174.22;4887219;29;20043;-84
2023/08/14 08:30:49;;;;;;;6.15;3.13;;;;;;;29.61;48.13;95170.13;4886135;29;20025;-85
2023/08/14 08:33:15;;;;;;;4.03;2.60;;;;;;;29.19;48.07;95168.94;4886858;29;20124;-84
2023/08/14 08:35:40;;;;;;;6.00;2.58;;;;;;;29.77;49.97;95158.19;4886382;29;20120;-82
2023/08/14 08:38:06;;;;;;;3.65;2.70;;;;;;;29.08;50.50;95170.13;4885857;29;20057;-82
2023/08/14 08:40:32;;;;;;;3.03;2.83;;;;;;;29.34;45.11;95167.22;4887342;29;20705;-82
2023/08/14 08:42:59;;;;;;;3.28;2.42;;;;;;;29.69;46.46;95164.97;4884875;29;20040;-81
2023/08/14 08:45:32;;;;;;;2.80;2.60;;;;;;;30.11;45.98;95166.88;4884139;29;20158;-84
2023/08/14 08:47:59;;;;;;;3.05;2.40;;;;;;;29.42;45.59;95170.06;4885210;29;20849;-85
2023/08/14 08:50:26;;;;;;;4.43;2.42;;;;;;;29.15;46.27;95169.78;4884370;29;20257;-84
2023/08/14 08:52:53;;;;;;;4.93;3.00;;;;;;;29.33;48.25;95155.75;4885523;29;20090;-84
2023/08/14 08:55:18;;;;;;;2.90;2.70;;;;;;;29.28;48.74;95139.81;4887623;29;20116;-83
2023/08/14 08:57:44;;;;;;;3.33;3.03;;;;;;;28.76;48.78;95159.19;4864831;29;20032;-83
2023/08/14 09:00:10;;;;;;;3.10;2.80;;;;;;;29.60;49.00;95158.66;4870930;29;20036;-83
2023/08/14 09:02:35;;;;;;;3.25;2.45;;;;;;;28.76;47.48;95154.66;4872608;29;20044;-83
2023/08/14 09:05:00;;;;;;;4.15;2.55;;;;;;;28.37;47.50;95153.84;4882660;29;20086;-84
2023/08/14 09:07:26;;;;;;;2.65;2.42;;;;;;;27.71;47.94;95156.81;4884594;29;20064;-84
2023/08/14 09:09:51;;;;;;;3.70;2.80;;;;;;;29.05;49.99;95148.53;4882735;29;20522;-84
2023/08/14 09:12:17;;;;;;;4.55;2.60;;;;;;;29.24;52.62;95126.22;4866536;29;20120;-84
2023/08/14 09:14:44;;;;;;;5.93;2.60;;;;;;;28.09;52.02;95150.03;4886666;29;20035;-81
2023/08/14 09:17:11;;;;;;;5.57;2.70;;;;;;;28.24;47.77;95152.59;4869026;29;20032;-81
2023/08/14 09:19:38;;;;;;;3.88;2.90;;;;;;;29.09;50.37;95147.66;4885872;29;20115;-83
2023/08/14 09:22:05;;;;;;;3.13;2.53;;;;;;;29.03;51.88;95150.66;4883125;29;20039;-83
2023/08/14 09:24:33;;;;;;;3.10;2.80;;;;;;;28.27;51.61;95140.59;4887474;29;20054;-85
2023/08/14 09:26:59;;;;;;;2.83;2.63;;;;;;;28.88;52.32;95140.16;4878914;29;20036;-84
2023/08/14 09:29:25;;;;;;;3.38;2.75;;;;;;;28.84;50.83;95131.09;4881579;29;20410;-82
2023/08/14 09:31:51;;;;;;;5.30;2.50;;;;;;;29.31;51.15;95143.78;4886021;29;20052;-81
2023/08/14 09:34:18;;;;;;;2.92;2.72;;;;;;;29.38;52.91;95137.00;4881262;29;20052;-80
2023/08/14 09:36:44;;;;;;;3.03;2.70;;;;;;;29.69;52.34;95130.25;4884372;29;20101;-85
2023/08/14 09:39:09;;;;;;;13.82;3.20;;;;;;;29.87;50.28;95131.38;4885393;29;20052;-82
2023/08/14 09:41:36;;;;;;;3.53;3.13;;;;;;;28.98;49.91;95126.72;4867149;29;20039;-83
2023/08/14 09:44:02;;;;;;;3.95;2.75;;;;;;;28.45;51.98;95131.91;4885174;29;20040;-83
2023/08/14 09:46:28;;;;;;;4.03;2.65;;;;;;;29.04;50.58;95123.72;4882309;29;20025;-84
2023/08/14 09:48:53;;;;;;;2.67;2.47;;;;;;;29.35;51.18;95129.56;4881662;29;20052;-82
2023/08/14 09:51:19;;;;;;;2.97;2.67;;;;;;;29.83;46.69;95130.34;4886197;29;20032;-88
2023/08/14 09:53:56;;;;;;;3.55;2.72;;;;;;;29.75;48.97;95122.97;4886506;29;20835;-84
2023/08/14 09:56:22;;;;;;;3.17;2.83;;;;;;;29.39;50.00;95129.78;4885600;29;20024;-86
2023/08/14 09:58:48;;;;;;;3.05;2.75;;;;;;;29.32;48.44;95126.66;4884544;29;20039;-83
2023/08/14 10:01:16;;;;;;;3.08;2.63;;;;;;;29.02;50.62;95122.41;4886674;29;20036;-89
2023/08/14 10:03:41;;;;;;;2.80;2.60;;;;;;;29.57;51.59;95121.06;4885471;29;20096;-86
2023/08/14 10:06:09;;;;;;;3.78;3.13;;;;;;;29.62;51.96;95119.09;4886838;29;20029;-84
2023/08/14 10:08:35;;;;;;;3.95;2.70;;;;;;;29.66;51.76;95114.78;4883957;29;20060;-78
2023/08/14 10:11:04;;;;;;;3.28;2.97;;;;;;;29.74;50.35;95116.81;4884401;29;20071;-77
2023/08/14 10:13:32;;;;;;;2.97;2.70;;;;;;;29.44;50.45;95113.72;4881427;29;20040;-79
2023/08/14 10:16:00;;;;;;;3.10;2.72;;;;;;;29.19;52.44;95109.41;4879595;29;20115;-87
2023/08/14 10:18:27;;;;;;;2.73;2.53;;;;;;;28.89;52.40;95104.41;4883909;29;20048;-79
2023/08/14 10:20:54;;;;;;;2.88;2.67;;;;;;;29.18;49.75;95107.84;4883578;29;20427;-81
2023/08/14 10:23:20;;;;;;;4.75;2.88;;;;;;;28.91;51.08;95099.56;4884480;29;20024;-80
2023/08/14 10:25:47;;;;;;;2.58;2.38;;;;;;;29.28;52.22;95099.75;4882928;29;20051;-85
2023/08/14 10:28:13;;;;;;;3.25;2.97;;;;;;;28.83;50.29;95102.84;4885514;29;20235;-82
2023/08/14 10:30:39;;;;;;;3.10;2.80;;;;;;;29.07;52.13;95104.47;4882652;29;20024;-81
2023/08/14 10:33:05;;;;;;;4.68;2.65;;;;;;;29.38;53.33;95102.28;4885735;29;20029;-83
2023/08/14 10:35:58;;;;;;;4.05;2.90;;;;;;;29.27;54.28;95106.16;4884706;29;20059;-84
2023/08/14 10:38:46;;;;;;;3.03;2.83;;;;;;;29.03;53.04;95097.28;4883529;29;20076;-88
2023/08/14 10:41:12;;;;;;;3.28;3.00;;;;;;;29.57;54.25;95094.34;4884985;29;20497;-82
2023/08/14 10:43:37;;;;;;;2.90;2.70;;;;;;;29.42;54.97;95097.19;4882861;29;20075;-80
2023/08/14 10:46:10;;;;;;;3.08;2.88;;;;;;;28.78;54.38;95088.47;4868384;29;20742;-79
2023/08/14 10:48:37;;;;;;;3.53;3.22;;;;;;;29.09;54.74;95088.19;4872929;29;20040;-81
2023/08/14 10:51:02;;;;;;;4.93;2.80;;;;;;;29.18;53.20;95083.81;4877978;29;20064;-79
2023/08/14 10:53:31;;;;;;;2.83;2.63;;;;;;;29.06;53.90;95083.41;4883478;29;20197;-80
2023/08/14 10:55:58;;;;;;;4.30;2.80;;;;;;;29.25;54.90;95079.75;4882105;29;20131;-82
2023/08/14 10:58:35;;;;;;;3.08;2.60;;;;;;;29.16;53.59;95077.94;4882697;29;20151;-79
2023/08/14 11:01:11;;;;;;;2.92;2.72;;;;;;;29.48;54.51;95080.81;4881907;29;20236;-82
2023/08/14 11:04:04;;;;;;;2.83;2.50;;;;;;;29.49;54.08;95074.41;4882473;29;20112;-80
2023/08/14 11:06:59;;;;;;;3.50;2.83;;;;;;;29.58;53.56;95074.53;4883572;29;20055;-83
2023/08/14 11:09:37;;;;;;;2.88;2.58;;;;;;;29.43;54.12;95072.88;4883711;29;20051;-81
2023/08/14 11:12:05;;;;;;;5.75;2.90;;;;;;;29.35;53.19;95070.81;4881968;29;20398;-86
2023/08/14 11:14:32;;;;;;;2.88;2.30;;;;;;;29.63;55.88;95071.81;4882085;29;20044;-79
2023/08/14 11:16:58;;;;;;;4.53;2.42;;;;;;;29.54;53.59;95066.31;4867055;29;20040;-80
2023/08/14 11:19:23;;;;;;;2.90;2.53;;;;;;;29.57;53.10;95062.28;4883642;29;20028;-79
2023/08/14 11:21:49;;;;;;;2.58;2.38;;;;;;;29.47;52.53;95057.88;4883162;29;20032;-84
2023/08/14 11:24:14;;;;;;;2.63;2.40;;;;;;;29.34;52.22;95063.91;4883927;29;20064;-79
2023/08/14 11:26:39;;;;;;;5.13;2.83;;;;;;;29.50;53.65;95057.31;4883495;29;20043;-80
2023/08/14 11:29:05;;;;;;;4.97;2.13;;;;;;;29.47;52.68;95057.06;4883190;29;20044;-81
2023/08/14 11:31:30;;;;;;;6.00;2.20;;;;;;;29.56;53.00;95053.47;4883951;29;20033;-86